Time;durP1;ratioP1;P1;durP2;ratioP2;P2;SDS_P1;SDS_P2;PMS_P1;PMS_P2;Temp;Humidity;BMP_temperature;BMP_pressure;BME280_temperature;BME280_humidity;BME280_pressure;Samples;Min_cycle;Max_cycle;Signal;HPM_P1;HPM_P2
2023/11/30 00:00:19;;;;;;;22.33;15.75;;;0.40;93.10;;;;;;6150627;29;20141;-79
2023/11/30 00:03:21;;;;;;;23.10;13.68;;;0.40;93.00;;;;;;6174392;28;20051;-79
2023/11/30 00:06:24;;;;;;;22.20;13.48;;;0.40;93.00;;;;;;6158327;28;20043;-79
2023/11/30 00:09:25;;;;;;;21.30;14.73;;;0.40;93.00;;;;;;6182046;28;20531;-79
2023/11/30 00:12:27;;;;;;;21.30;13.60;;;0.30;93.00;;;;;;6165172;28;20055;-79
2023/11/30 00:15:29;;;;;;;21.60;14.50;;;0.30;92.90;;;;;;6158728;28;20058;-78
2023/11/30 00:18:30;;;;;;;25.60;13.67;;;0.20;92.90;;;;;;6158851;28;20057;-79
2023/11/30 00:21:33;;;;;;;18.23;12.93;;;0.20;93.00;;;;;;6176436;28;20045;-79
2023/11/30 00:24:35;;;;;;;27.77;15.73;;;0.20;93.00;;;;;;6181155;28;20059;-79
2023/11/30 00:27:37;;;;;;;23.57;13.67;;;0.10;93.00;;;;;;6160661;28;20062;-79
2023/11/30 00:30:40;;;;;;;19.02;14.23;;;0.10;93.00;;;;;;6161394;28;20054;-79
2023/11/30 00:33:42;;;;;;;18.03;12.40;;;0.00;93.00;;;;;;6162654;28;20152;-79
2023/11/30 00:36:45;;;;;;;22.00;13.43;;;0.00;93.00;;;;;;6158085;28;20047;-79
2023/11/30 00:39:47;;;;;;;19.37;14.70;;;0.00;93.00;;;;;;6167190;28;20047;-79
2023/11/30 00:42:48;;;;;;;17.13;13.57;;;0.00;93.00;;;;;;6158009;28;20066;-78
2023/11/30 00:45:50;;;;;;;19.73;14.17;;;-0.10;92.90;;;;;;6159330;28;20043;-79
2023/11/30 00:48:52;;;;;;;21.67;15.80;;;-0.20;92.90;;;;;;6166276;28;20047;-79
2023/11/30 00:51:55;;;;;;;25.40;13.93;;;-0.30;92.90;;;;;;6160269;29;20043;-79
2023/11/30 00:54:57;;;;;;;21.27;14.27;;;-0.30;93.00;;;;;;6163872;28;20045;-79
2023/11/30 00:57:59;;;;;;;19.53;14.43;;;-0.40;93.00;;;;;;6163051;28;20055;-79
2023/11/30 01:01:00;;;;;;;22.17;15.10;;;-0.40;93.00;;;;;;6158395;28;20046;-79
2023/11/30 01:04:02;;;;;;;24.60;15.67;;;-0.40;93.10;;;;;;6166036;28;20424;-80
2023/11/30 01:07:05;;;;;;;21.97;14.90;;;-0.40;93.20;;;;;;6171878;28;20051;-79
2023/11/30 01:10:07;;;;;;;22.27;15.40;;;-0.40;93.20;;;;;;6160469;28;20046;-79
2023/11/30 01:13:09;;;;;;;25.57;15.07;;;-0.30;93.20;;;;;;6178434;28;20054;-78
2023/11/30 01:16:11;;;;;;;22.93;15.10;;;-0.30;93.30;;;;;;6157004;28;20061;-79
2023/11/30 01:19:13;;;;;;;21.17;14.00;;;-0.30;93.20;;;;;;6155399;28;20053;-79
2023/11/30 01:22:16;;;;;;;20.07;14.50;;;-0.30;93.20;;;;;;6154842;28;20103;-79
2023/11/30 01:25:18;;;;;;;22.57;15.37;;;-0.40;93.10;;;;;;6162923;28;20055;-79
2023/11/30 01:28:20;;;;;;;19.80;14.77;;;-0.40;93.10;;;;;;6157335;28;20051;-79
2023/11/30 01:31:21;;;;;;;21.10;14.97;;;-0.40;93.10;;;;;;6157369;28;20051;-79
2023/11/30 01:34:23;;;;;;;18.30;14.57;;;-0.40;93.10;;;;;;6157622;28;20047;-79
2023/11/30 01:37:26;;;;;;;24.20;16.63;;;-0.50;93.10;;;;;;6160259;28;20523;-80
2023/11/30 01:40:28;;;;;;;21.30;14.70;;;-0.50;93.10;;;;;;6157654;28;20058;-79
2023/11/30 01:43:29;;;;;;;20.77;13.40;;;-0.50;93.10;;;;;;6158574;28;20043;-79
2023/11/30 01:46:32;;;;;;;24.57;16.80;;;-0.50;93.20;;;;;;6158042;28;20054;-79
2023/11/30 01:49:34;;;;;;;17.30;13.37;;;-0.60;93.20;;;;;;6157710;29;20059;-79
2023/11/30 01:52:37;;;;;;;29.17;14.47;;;-0.60;93.20;;;;;;6167700;28;20055;-79
2023/11/30 01:55:40;;;;;;;26.23;14.27;;;-0.60;93.10;;;;;;6165991;28;20054;-79
2023/11/30 01:58:42;;;;;;;17.37;13.00;;;-0.60;93.20;;;;;;6165424;28;20126;-80
2023/11/30 02:01:44;;;;;;;21.27;14.03;;;-0.60;93.20;;;;;;6171021;28;21154;-79
2023/11/30 02:04:55;;;;;;;23.47;14.33;;;-0.60;93.20;;;;;;6157839;29;20065;-79
2023/11/30 02:07:58;;;;;;;24.73;15.37;;;-0.70;93.10;;;;;;6155912;29;20050;-79
2023/11/30 02:11:00;;;;;;;20.77;14.77;;;-0.70;93.10;;;;;;6155885;28;20043;-79
2023/11/30 02:14:03;;;;;;;19.43;13.43;;;-0.70;93.10;;;;;;6173088;28;20055;-79
2023/11/30 02:17:05;;;;;;;25.43;13.40;;;-0.80;93.10;;;;;;6157023;28;20073;-79
2023/11/30 02:20:07;;;;;;;20.50;13.87;;;-0.80;93.10;;;;;;6171302;28;20061;-79
2023/11/30 02:23:11;;;;;;;21.30;14.83;;;-0.80;93.10;;;;;;6159585;28;20046;-79
2023/11/30 02:26:13;;;;;;;24.30;15.03;;;-0.80;93.10;;;;;;6173628;28;20047;-79
2023/11/30 02:29:15;;;;;;;22.13;15.80;;;-0.80;93.30;;;;;;6172135;28;20046;-79
2023/11/30 02:32:17;;;;;;;19.20;15.47;;;-0.80;93.30;;;;;;6159192;28;20051;-79
2023/11/30 02:35:18;;;;;;;18.23;13.00;;;-0.70;93.40;;;;;;6158553;28;20047;-78
2023/11/30 02:38:21;;;;;;;19.27;13.80;;;-0.70;93.40;;;;;;6165585;28;20053;-79
2023/11/30 02:41:23;;;;;;;24.00;14.27;;;-0.60;93.40;;;;;;6165171;28;20156;-79
2023/11/30 02:44:25;;;;;;;20.63;13.40;;;-0.60;93.40;;;;;;6174641;28;20047;-79
2023/11/30 02:47:27;;;;;;;18.07;13.97;;;-0.60;93.40;;;;;;6165828;28;20055;-79
2023/11/30 02:50:28;;;;;;;21.57;15.60;;;-0.50;93.40;;;;;;6161354;28;20043;-79
2023/11/30 02:53:31;;;;;;;17.47;12.17;;;-0.50;93.40;;;;;;6158450;28;20043;-80
2023/11/30 02:56:39;;;;;;;18.57;13.17;;;-0.50;93.40;;;;;;6179955;22;20050;-79
2023/11/30 02:59:41;;;;;;;21.30;13.70;;;-0.50;93.30;;;;;;6227423;28;20050;-79
2023/11/30 03:02:42;;;;;;;17.87;13.40;;;-0.50;93.30;;;;;;6226823;28;20041;-78
2023/11/30 03:05:44;;;;;;;20.07;13.23;;;-0.50;93.30;;;;;;6226375;28;20050;-79
2023/11/30 03:08:47;;;;;;;18.87;13.90;;;-0.50;93.30;;;;;;6226864;28;20053;-78
2023/11/30 03:11:49;;;;;;;22.50;13.87;;;-0.50;93.20;;;;;;6226898;28;20248;-79
2023/11/30 03:14:51;;;;;;;18.00;15.07;;;-0.50;93.20;;;;;;6226079;28;20117;-79
2023/11/30 03:17:52;;;;;;;19.07;12.97;;;-0.60;93.20;;;;;;6227204;28;20049;-80
2023/11/30 03:20:54;;;;;;;23.73;14.20;;;-0.60;93.20;;;;;;6228042;28;20045;-79
2023/11/30 03:23:57;;;;;;;19.87;13.20;;;-0.60;93.30;;;;;;6228922;28;20050;-79
2023/11/30 03:26:59;;;;;;;20.80;13.87;;;-0.50;93.40;;;;;;6232872;28;20038;-79
2023/11/30 03:30:00;;;;;;;19.10;12.03;;;-0.50;93.30;;;;;;6230276;28;20053;-80
2023/11/30 03:33:02;;;;;;;20.63;13.43;;;-0.50;93.40;;;;;;6241787;28;20228;-80
2023/11/30 03:36:04;;;;;;;16.10;12.37;;;-0.50;93.30;;;;;;6234406;28;20049;-80
2023/11/30 03:39:07;;;;;;;19.57;12.20;;;-0.40;93.30;;;;;;6232383;28;20054;-79
2023/11/30 03:42:10;;;;;;;18.90;13.00;;;-0.40;93.30;;;;;;6232295;28;20050;-80
2023/11/30 03:45:11;;;;;;;16.40;12.53;;;-0.40;93.30;;;;;;6231844;28;20498;-78
2023/11/30 03:48:13;;;;;;;16.80;13.50;;;-0.40;93.30;;;;;;6231891;28;20054;-80
2023/11/30 03:51:15;;;;;;;19.50;12.73;;;-0.30;93.30;;;;;;6230340;28;20045;-79
2023/11/30 03:54:18;;;;;;;20.70;13.27;;;-0.30;93.30;;;;;;6230901;28;20042;-79
2023/11/30 03:57:19;;;;;;;16.67;13.97;;;-0.30;93.40;;;;;;6230574;28;20049;-78
2023/11/30 04:00:21;;;;;;;20.23;13.63;;;-0.20;93.40;;;;;;6230599;28;20049;-79
2023/11/30 04:03:23;;;;;;;20.03;12.90;;;-0.20;93.40;;;;;;6229635;28;20052;-79
2023/11/30 04:06:24;;;;;;;17.67;13.27;;;-0.10;93.40;;;;;;6230349;28;20056;-79
2023/11/30 04:09:27;;;;;;;16.90;12.43;;;-0.10;93.30;;;;;;6229115;28;20517;-78
2023/11/30 04:12:29;;;;;;;18.27;12.77;;;-0.10;93.30;;;;;;6232339;28;20050;-79
2023/11/30 04:15:31;;;;;;;19.20;13.53;;;-0.10;93.30;;;;;;6223407;28;20079;-79
2023/11/30 04:18:33;;;;;;;20.30;13.20;;;-0.20;93.30;;;;;;6229710;28;20042;-79
2023/11/30 04:21:35;;;;;;;18.63;13.90;;;-0.20;93.20;;;;;;6230166;28;20050;-79
2023/11/30 04:24:38;;;;;;;19.77;13.37;;;-0.20;93.10;;;;;;6230566;28;20510;-78
2023/11/30 04:27:40;;;;;;;22.30;13.70;;;-0.30;93.10;;;;;;6229999;28;20392;-80
2023/11/30 04:30:41;;;;;;;23.83;14.03;;;-0.30;93.10;;;;;;6230615;28;20132;-78
2023/11/30 04:33:43;;;;;;;21.70;13.90;;;-0.40;93.10;;;;;;6230128;28;20050;-79
2023/11/30 04:36:45;;;;;;;21.17;15.50;;;-0.40;93.20;;;;;;6229948;28;20058;-78
2023/11/30 04:39:48;;;;;;;22.57;17.53;;;-0.40;93.20;;;;;;6240678;28;20073;-79
2023/11/30 04:42:50;;;;;;;23.80;17.07;;;-0.40;93.20;;;;;;6232962;28;20049;-79
2023/11/30 04:45:52;;;;;;;16.93;13.07;;;-0.40;93.20;;;;;;6232974;28;20050;-79
2023/11/30 04:48:53;;;;;;;25.07;15.33;;;-0.50;93.20;;;;;;6230991;28;20498;-79
2023/11/30 04:51:55;;;;;;;20.47;14.17;;;-0.50;93.20;;;;;;6230798;28;20041;-78
2023/11/30 04:54:58;;;;;;;20.20;14.03;;;-0.50;93.20;;;;;;6229772;28;20050;-79
2023/11/30 04:58:00;;;;;;;23.60;16.97;;;-0.60;93.20;;;;;;6228059;28;20042;-79
2023/11/30 05:01:01;;;;;;;22.57;15.53;;;-0.60;93.20;;;;;;6223070;28;20410;-76
2023/11/30 05:04:03;;;;;;;22.57;14.87;;;-0.60;93.20;;;;;;6223884;28;20128;-75
2023/11/30 05:07:05;;;;;;;24.83;14.70;;;-0.60;93.20;;;;;;6223342;28;20052;-76
2023/11/30 05:10:08;;;;;;;19.80;14.53;;;-0.60;93.30;;;;;;6223043;28;20133;-76
2023/11/30 05:13:10;;;;;;;22.23;14.40;;;-0.60;93.40;;;;;;6223151;28;20511;-77
2023/11/30 05:16:12;;;;;;;20.50;15.03;;;-0.60;93.40;;;;;;6224075;28;20046;-77
2023/11/30 05:19:14;;;;;;;20.20;13.30;;;-0.60;93.40;;;;;;6223506;28;20046;-77
2023/11/30 05:22:16;;;;;;;18.77;13.87;;;-0.50;93.40;;;;;;6223215;28;20049;-76
2023/11/30 05:25:19;;;;;;;25.87;15.73;;;-0.50;93.40;;;;;;6223360;28;20046;-76
2023/11/30 05:28:21;;;;;;;22.87;15.50;;;-0.50;93.30;;;;;;6223417;28;20511;-77
2023/11/30 05:31:23;;;;;;;20.47;15.20;;;-0.50;93.30;;;;;;6224541;28;20415;-78
2023/11/30 05:34:24;;;;;;;23.47;15.43;;;-0.60;93.30;;;;;;6228430;28;20053;-79
2023/11/30 05:37:26;;;;;;;19.80;14.87;;;-0.60;93.20;;;;;;6228656;28;20065;-79
2023/11/30 05:40:29;;;;;;;24.17;15.87;;;-0.60;93.30;;;;;;6226293;28;20076;-78
2023/11/30 05:43:31;;;;;;;23.83;16.23;;;-0.60;93.30;;;;;;6228133;28;20050;-80
2023/11/30 05:46:33;;;;;;;28.23;17.60;;;-0.60;93.30;;;;;;6228033;28;20073;-78
2023/11/30 05:49:35;;;;;;;22.23;16.10;;;-0.60;93.40;;;;;;6246072;28;20053;-77
2023/11/30 05:52:36;;;;;;;25.43;17.63;;;-0.50;93.40;;;;;;6239154;28;20046;-80
2023/11/30 05:55:39;;;;;;;23.77;17.67;;;-0.50;93.40;;;;;;6230216;28;20542;-79
2023/11/30 05:58:41;;;;;;;26.27;17.53;;;-0.50;93.40;;;;;;6227938;28;20510;-79
2023/11/30 06:01:43;;;;;;;25.57;17.50;;;-0.40;93.40;;;;;;6227709;28;20050;-79
2023/11/30 06:04:50;;;;;;;20.73;14.30;;;-0.40;93.40;;;;;;6227774;28;20042;-79
2023/11/30 06:07:52;;;;;;;18.67;13.82;;;-0.30;93.40;;;;;;6229374;28;20054;-79
2023/11/30 06:10:55;;;;;;;21.97;14.13;;;-0.30;93.40;;;;;;6227331;28;20065;-79
2023/11/30 06:13:57;;;;;;;21.77;16.47;;;-0.30;93.40;;;;;;6228179;28;20475;-78
2023/11/30 06:16:58;;;;;;;20.73;15.93;;;-0.20;93.40;;;;;;6226779;28;20060;-79
2023/11/30 06:20:00;;;;;;;20.83;13.40;;;-0.20;93.50;;;;;;6228990;28;20046;-80
2023/11/30 06:23:02;;;;;;;21.43;15.27;;;-0.10;93.40;;;;;;6227307;28;20053;-81
2023/11/30 06:26:07;;;;;;;20.17;14.53;;;-0.10;93.50;;;;;;6226923;28;20053;-79
2023/11/30 06:29:10;;;;;;;20.37;13.63;;;0.00;93.50;;;;;;6226571;28;20046;-79
2023/11/30 06:32:12;;;;;;;23.27;15.17;;;0.00;93.50;;;;;;6226363;28;20422;-81
2023/11/30 06:35:14;;;;;;;17.33;12.80;;;0.10;93.40;;;;;;6225816;28;20049;-81
2023/11/30 06:38:16;;;;;;;20.63;13.93;;;0.10;93.40;;;;;;6226964;28;20054;-80
2023/11/30 06:41:19;;;;;;;21.23;14.17;;;0.10;93.40;;;;;;6227300;28;20054;-80
2023/11/30 06:44:20;;;;;;;18.13;13.13;;;0.10;93.40;;;;;;6227847;28;20497;-80
2023/11/30 06:47:22;;;;;;;18.67;12.93;;;0.10;93.40;;;;;;6227756;28;20465;-81
2023/11/30 06:50:24;;;;;;;36.17;16.17;;;0.10;93.40;;;;;;6239011;28;20038;-78
2023/11/30 06:53:25;;;;;;;22.30;13.67;;;0.10;93.40;;;;;;6226711;28;20053;-78
2023/11/30 06:56:28;;;;;;;16.97;13.23;;;0.10;93.40;;;;;;6235040;28;20033;-78
2023/11/30 06:59:30;;;;;;;18.47;13.13;;;0.10;93.40;;;;;;6227825;28;20054;-80
2023/11/30 07:02:32;;;;;;;21.30;15.10;;;0.10;93.40;;;;;;6226048;28;20061;-79
2023/11/30 07:05:33;;;;;;;20.13;14.87;;;0.10;93.40;;;;;;6226678;28;20058;-81
2023/11/30 07:08:35;;;;;;;19.77;14.40;;;0.10;93.40;;;;;;6224829;28;20054;-80
2023/11/30 07:11:38;;;;;;;19.27;13.43;;;0.10;93.40;;;;;;6225932;28;20072;-79
2023/11/30 07:14:40;;;;;;;18.27;13.00;;;0.10;93.40;;;;;;6225814;28;20414;-80
2023/11/30 07:17:41;;;;;;;23.00;13.70;;;0.10;93.40;;;;;;6216354;28;20076;-78
2023/11/30 07:20:43;;;;;;;16.93;13.37;;;0.10;93.40;;;;;;6225392;28;20050;-81
2023/11/30 07:23:45;;;;;;;17.30;12.70;;;0.10;93.30;;;;;;6225959;28;20054;-80
2023/11/30 07:26:48;;;;;;;25.13;18.67;;;0.20;93.40;;;;;;6225380;28;20057;-80
2023/11/30 07:29:50;;;;;;;27.67;18.57;;;0.20;93.40;;;;;;6223846;28;20065;-81
2023/11/30 07:32:53;;;;;;;28.23;19.60;;;0.20;93.40;;;;;;6225078;28;20050;-81
2023/11/30 07:35:55;;;;;;;17.43;13.93;;;0.20;93.50;;;;;;6225697;28;20141;-78
2023/11/30 07:38:57;;;;;;;19.17;12.47;;;0.30;93.50;;;;;;6225979;28;20052;-81
2023/11/30 07:42:00;;;;;;;18.40;13.63;;;0.40;93.50;;;;;;6227115;28;20061;-79
2023/11/30 07:45:02;;;;;;;16.10;13.03;;;0.40;93.40;;;;;;6225475;28;20070;-81
2023/11/30 07:48:04;;;;;;;20.48;13.68;;;0.40;93.40;;;;;;6225041;28;20053;-81
2023/11/30 07:51:07;;;;;;;20.43;12.93;;;0.30;93.30;;;;;;6224476;28;20046;-81
2023/11/30 07:54:09;;;;;;;18.23;13.93;;;0.40;93.30;;;;;;6224714;28;20048;-81
2023/11/30 07:57:12;;;;;;;19.75;12.60;;;0.40;93.30;;;;;;6224934;28;20042;-81
2023/11/30 08:00:15;;;;;;;16.67;12.10;;;0.40;93.40;;;;;;6231017;28;20060;-79
2023/11/30 08:03:17;;;;;;;17.27;13.95;;;0.50;93.50;;;;;;6203838;28;20435;-80
2023/11/30 08:06:19;;;;;;;17.50;12.07;;;0.60;93.40;;;;;;6227857;28;20052;-81
2023/11/30 08:09:21;;;;;;;20.60;13.23;;;0.60;93.40;;;;;;6226921;28;20042;-80
2023/11/30 08:12:24;;;;;;;16.95;12.07;;;0.70;93.40;;;;;;6224789;28;20089;-82
2023/11/30 08:15:25;;;;;;;16.23;11.55;;;0.80;93.50;;;;;;6220883;28;20646;-81
2023/11/30 08:18:27;;;;;;;12.90;10.95;;;0.90;93.50;;;;;;6194522;28;20817;-80
2023/11/30 08:21:29;;;;;;;18.13;11.25;;;0.90;93.50;;;;;;6198899;28;20056;-81
2023/11/30 08:24:31;;;;;;;16.23;11.20;;;1.00;93.50;;;;;;6214244;28;20078;-82
2023/11/30 08:27:35;;;;;;;17.98;12.10;;;1.10;93.50;;;;;;6213274;28;20530;-79
2023/11/30 08:30:37;;;;;;;16.33;12.23;;;1.20;93.40;;;;;;6211323;28;20129;-81
2023/11/30 08:33:39;;;;;;;17.20;12.25;;;1.20;93.40;;;;;;6210732;28;20049;-80
2023/11/30 08:36:40;;;;;;;17.88;12.30;;;1.30;93.50;;;;;;6212596;28;20050;-79
2023/11/30 08:39:42;;;;;;;23.95;14.45;;;1.50;93.60;;;;;;6225920;28;20049;-81
2023/11/30 08:42:45;;;;;;;19.25;13.48;;;1.70;93.60;;;;;;6226649;28;20046;-81
2023/11/30 08:45:47;;;;;;;21.08;13.15;;;1.80;93.60;;;;;;6214830;28;20046;-76
2023/11/30 08:48:48;;;;;;;21.48;16.35;;;1.90;93.40;;;;;;6213122;28;20050;-78
2023/11/30 08:51:51;;;;;;;21.52;17.30;;;2.00;93.40;;;;;;6214616;28;20042;-79
2023/11/30 08:54:53;;;;;;;24.98;17.00;;;2.00;93.40;;;;;;6214403;28;20050;-80
2023/11/30 08:57:56;;;;;;;19.95;14.70;;;2.10;93.30;;;;;;6210830;28;20069;-80
2023/11/30 09:00:58;;;;;;;19.65;14.15;;;2.10;93.30;;;;;;6210335;28;20410;-79
2023/11/30 09:04:03;;;;;;;18.08;14.65;;;2.20;93.70;;;;;;6222467;28;20038;-79
2023/11/30 09:07:05;;;;;;;20.25;15.27;;;2.30;93.40;;;;;;6223923;28;20538;-81
2023/11/30 09:10:07;;;;;;;26.38;17.80;;;2.40;93.40;;;;;;6224953;28;20050;-79
2023/11/30 09:13:11;;;;;;;20.15;16.55;;;2.50;93.40;;;;;;6235339;28;20503;-79
2023/11/30 09:16:12;;;;;;;17.98;13.40;;;2.60;93.30;;;;;;6226426;28;20069;-80
2023/11/30 09:19:14;;;;;;;18.60;16.10;;;2.70;93.20;;;;;;6223431;28;20049;-78
2023/11/30 09:22:17;;;;;;;24.25;17.58;;;2.70;93.20;;;;;;6222988;28;20045;-78
2023/11/30 09:25:19;;;;;;;21.02;15.88;;;2.80;93.10;;;;;;6233663;28;20088;-79
2023/11/30 09:28:22;;;;;;;23.65;16.52;;;2.80;93.10;;;;;;6232611;28;20050;-78
2023/11/30 09:31:23;;;;;;;22.90;17.67;;;2.90;93.10;;;;;;6223057;28;20046;-78
2023/11/30 09:34:26;;;;;;;19.73;16.98;;;3.10;93.10;;;;;;6222869;28;20045;-78
2023/11/30 09:37:28;;;;;;;20.08;15.50;;;3.10;92.90;;;;;;6221981;28;20529;-79
2023/11/30 09:40:30;;;;;;;18.50;14.73;;;3.20;92.80;;;;;;6224036;28;20052;-79
2023/11/30 09:43:33;;;;;;;25.80;19.20;;;3.10;92.60;;;;;;6224051;28;20046;-79
2023/11/30 09:46:35;;;;;;;18.52;16.38;;;3.00;92.60;;;;;;6223871;28;20046;-79
2023/11/30 09:49:37;;;;;;;21.55;17.17;;;3.00;92.70;;;;;;6217986;28;20049;-79
2023/11/30 09:52:39;;;;;;;21.75;17.75;;;3.00;92.50;;;;;;6213316;28;20356;-80
2023/11/30 09:55:42;;;;;;;22.83;17.88;;;3.00;92.50;;;;;;6212662;28;20050;-80
2023/11/30 09:58:45;;;;;;;22.20;16.80;;;3.20;92.80;;;;;;6211493;28;20049;-80
2023/11/30 10:01:48;;;;;;;19.40;15.93;;;3.30;92.60;;;;;;6210830;28;20567;-79
2023/11/30 10:04:50;;;;;;;20.75;17.67;;;3.30;92.60;;;;;;6210873;28;20054;-79
2023/11/30 10:07:52;;;;;;;22.58;16.67;;;3.40;92.50;;;;;;6212513;28;20061;-79
2023/11/30 10:10:54;;;;;;;25.50;16.83;;;3.40;92.50;;;;;;6210662;28;20052;-78
2023/11/30 10:13:57;;;;;;;23.02;17.02;;;3.40;92.50;;;;;;6210431;28;20044;-79
2023/11/30 10:17:00;;;;;;;26.33;16.50;;;3.40;92.40;;;;;;6214284;28;20122;-78
2023/11/30 10:20:04;;;;;;;23.25;18.50;;;3.40;92.40;;;;;;6218923;28;20065;-80
2023/11/30 10:23:10;;;;;;;20.75;18.27;;;3.50;92.30;;;;;;6213405;28;20054;-80
2023/11/30 10:26:16;;;;;;;26.45;18.27;;;3.50;92.20;;;;;;6209349;28;20050;-78
2023/11/30 10:29:21;;;;;;;24.67;19.83;;;3.40;92.20;;;;;;6213451;28;20078;-79
2023/11/30 10:32:23;;;;;;;21.85;17.08;;;3.40;92.20;;;;;;6215197;28;20057;-77
2023/11/30 10:35:28;;;;;;;24.55;18.30;;;3.40;92.00;;;;;;6209996;28;20049;-79
2023/11/30 10:38:34;;;;;;;24.45;19.67;;;3.30;92.00;;;;;;6192302;28;20056;-79
2023/11/30 10:41:56;;;;;;;23.80;18.88;;;3.40;92.10;;;;;;6182111;28;20046;-79
2023/11/30 10:45:04;;;;;;;25.35;17.77;;;3.40;92.00;;;;;;6185840;28;20727;-79
2023/11/30 10:48:11;;;;;;;23.80;17.95;;;3.50;92.00;;;;;;6184666;28;20046;-79
2023/11/30 10:51:13;;;;;;;22.20;18.45;;;3.50;92.00;;;;;;6195306;28;20053;-77
2023/11/30 10:54:23;;;;;;;30.80;20.33;;;3.60;92.10;;;;;;6210394;28;20048;-79
2023/11/30 10:57:25;;;;;;;24.00;18.95;;;3.70;92.10;;;;;;6220473;28;20168;-78
2023/11/30 11:00:34;;;;;;;23.65;17.38;;;3.70;92.00;;;;;;6222191;28;20050;-78
2023/11/30 11:03:39;;;;;;;25.83;20.00;;;3.80;92.00;;;;;;6221960;28;20651;-78
2023/11/30 11:06:41;;;;;;;20.60;17.20;;;3.90;92.00;;;;;;6221432;28;20111;-79
2023/11/30 11:09:43;;;;;;;24.70;17.20;;;3.90;91.90;;;;;;6221414;28;20068;-78
2023/11/30 11:12:49;;;;;;;22.00;16.52;;;4.00;92.00;;;;;;6221390;28;20127;-79
2023/11/30 11:16:00;;;;;;;23.15;19.30;;;4.10;91.80;;;;;;6221947;28;20510;-78
2023/11/30 11:19:04;;;;;;;18.45;15.90;;;4.10;91.80;;;;;;6213431;28;20419;-79
2023/11/30 11:22:14;;;;;;;21.30;16.88;;;4.10;91.70;;;;;;6221329;28;20041;-78
2023/11/30 11:25:17;;;;;;;19.92;16.40;;;4.10;91.60;;;;;;6221538;28;20056;-78
2023/11/30 11:28:19;;;;;;;24.50;17.42;;;4.10;91.60;;;;;;6229139;28;20136;-79
2023/11/30 11:31:23;;;;;;;24.42;16.45;;;4.10;91.60;;;;;;6222402;28;20042;-79
2023/11/30 11:34:24;;;;;;;24.98;17.23;;;4.10;91.50;;;;;;6220264;28;20049;-79
2023/11/30 11:37:26;;;;;;;22.13;17.02;;;4.20;91.50;;;;;;6220194;28;20042;-79
2023/11/30 11:40:28;;;;;;;21.58;16.63;;;4.20;91.50;;;;;;6220114;28;20476;-78
2023/11/30 11:43:29;;;;;;;23.17;18.77;;;4.20;91.50;;;;;;6220220;28;20052;-79
2023/11/30 11:46:32;;;;;;;21.33;16.40;;;4.20;91.40;;;;;;6220256;28;20041;-78
2023/11/30 11:49:34;;;;;;;22.85;15.80;;;4.30;91.50;;;;;;6224466;28;20071;-79
2023/11/30 11:52:36;;;;;;;19.85;16.60;;;4.30;91.40;;;;;;6225282;28;20050;-78
2023/11/30 11:55:38;;;;;;;20.85;16.17;;;4.30;91.30;;;;;;6225675;28;20049;-79
2023/11/30 11:58:43;;;;;;;22.67;16.75;;;4.30;91.30;;;;;;6224504;28;20042;-79
2023/11/30 12:01:47;;;;;;;22.83;17.55;;;4.30;91.30;;;;;;6224557;28;20046;-78
2023/11/30 12:04:49;;;;;;;17.98;14.20;;;4.40;91.30;;;;;;6225571;28;20095;-78
2023/11/30 12:07:52;;;;;;;21.58;14.70;;;4.30;91.00;;;;;;6226171;28;20045;-78
2023/11/30 12:10:54;;;;;;;19.60;14.77;;;4.20;90.90;;;;;;6225467;28;20056;-79
2023/11/30 12:13:55;;;;;;;24.80;17.60;;;4.10;90.90;;;;;;6225250;28;20438;-78
2023/11/30 12:16:58;;;;;;;20.08;16.33;;;4.00;90.90;;;;;;6225572;28;20418;-79
2023/11/30 12:20:00;;;;;;;23.33;15.75;;;4.00;90.90;;;;;;6225694;28;20053;-79
2023/11/30 12:23:03;;;;;;;19.70;15.10;;;3.90;91.00;;;;;;6220258;28;20056;-78
2023/11/30 12:26:05;;;;;;;25.23;18.20;;;3.90;91.00;;;;;;6231646;28;20050;-77
2023/11/30 12:29:08;;;;;;;20.63;17.70;;;3.90;91.00;;;;;;6220355;28;20069;-78
2023/11/30 12:32:11;;;;;;;22.02;16.58;;;3.90;91.10;;;;;;6224707;28;20064;-79
2023/11/30 12:35:13;;;;;;;23.23;16.50;;;3.90;91.10;;;;;;6221880;28;20065;-79
2023/11/30 12:38:15;;;;;;;24.08;16.30;;;3.90;91.10;;;;;;6225082;28;20523;-79
2023/11/30 12:41:17;;;;;;;21.30;17.73;;;3.80;91.10;;;;;;6214998;28;20042;-78
2023/11/30 12:44:19;;;;;;;22.77;15.65;;;3.80;91.00;;;;;;6220296;28;20051;-78
2023/11/30 12:47:22;;;;;;;22.15;16.60;;;3.70;91.00;;;;;;6216439;28;20077;-79
2023/11/30 12:50:24;;;;;;;20.00;15.98;;;3.60;91.00;;;;;;6217134;28;20045;-79
2023/11/30 12:53:26;;;;;;;22.38;15.85;;;3.60;91.00;;;;;;6215981;28;20052;-79
2023/11/30 12:56:28;;;;;;;22.42;16.92;;;3.60;91.10;;;;;;6213141;28;20055;-78
2023/11/30 12:59:30;;;;;;;21.95;17.20;;;3.50;91.00;;;;;;6216387;28;20053;-79
2023/11/30 13:02:33;;;;;;;24.65;18.70;;;3.50;91.00;;;;;;6223965;28;20049;-80
2023/11/30 13:05:36;;;;;;;26.90;17.23;;;3.50;91.10;;;;;;6215315;28;20042;-79
2023/11/30 13:08:37;;;;;;;21.77;17.50;;;3.50;91.10;;;;;;6212495;28;20062;-79
2023/11/30 13:11:39;;;;;;;20.75;16.35;;;3.50;91.20;;;;;;6213011;28;20049;-81
2023/11/30 13:14:41;;;;;;;22.52;18.23;;;3.50;91.20;;;;;;6212838;28;20684;-78
2023/11/30 13:17:45;;;;;;;25.90;17.08;;;3.50;91.20;;;;;;6209074;28;20507;-78
2023/11/30 13:20:47;;;;;;;25.00;19.52;;;3.50;91.20;;;;;;6213722;28;20054;-79
2023/11/30 13:23:49;;;;;;;23.23;18.52;;;3.50;91.20;;;;;;6221017;28;20049;-78
2023/11/30 13:26:50;;;;;;;26.67;19.02;;;3.50;91.30;;;;;;6222025;28;20045;-79
2023/11/30 13:29:52;;;;;;;22.27;16.98;;;3.60;91.20;;;;;;6225584;28;20625;-79
2023/11/30 13:32:56;;;;;;;25.70;18.00;;;3.60;91.20;;;;;;6224668;28;20045;-79
2023/11/30 13:35:57;;;;;;;22.10;18.33;;;3.60;91.30;;;;;;6225256;28;20442;-80
2023/11/30 13:39:00;;;;;;;29.70;18.73;;;3.60;91.20;;;;;;6224560;28;20068;-79
2023/11/30 13:42:02;;;;;;;23.92;18.42;;;3.60;91.30;;;;;;6226007;28;20077;-79
2023/11/30 13:45:05;;;;;;;25.27;16.80;;;3.60;91.30;;;;;;6226058;28;20042;-78
2023/11/30 13:48:08;;;;;;;23.17;16.65;;;3.60;91.20;;;;;;6218203;28;20050;-79
2023/11/30 13:51:10;;;;;;;20.67;15.38;;;3.60;91.20;;;;;;6223659;28;20053;-79
2023/11/30 13:54:13;;;;;;;21.77;17.77;;;3.70;91.30;;;;;;6223163;28;20486;-78
2023/11/30 13:57:15;;;;;;;29.25;18.70;;;3.70;91.40;;;;;;6222128;28;20046;-79
2023/11/30 14:00:17;;;;;;;21.83;17.58;;;3.70;91.40;;;;;;6223984;28;20053;-78
2023/11/30 14:03:20;;;;;;;27.10;17.92;;;3.70;91.40;;;;;;6222986;28;20065;-78
2023/11/30 14:06:22;;;;;;;31.45;24.55;;;3.80;91.40;;;;;;6223829;28;20037;-78
2023/11/30 14:09:26;;;;;;;88.15;51.70;;;3.80;91.40;;;;;;6223206;28;20564;-78
2023/11/30 14:12:28;;;;;;;61.55;43.92;;;3.90;91.50;;;;;;6225002;28;20053;-79
2023/11/30 14:15:30;;;;;;;32.60;25.98;;;4.00;91.50;;;;;;6226012;28;20048;-78
2023/11/30 14:18:33;;;;;;;28.98;22.33;;;4.00;91.50;;;;;;6223794;28;20118;-79
2023/11/30 14:21:34;;;;;;;30.45;25.45;;;4.10;91.50;;;;;;6223108;28;20041;-79
2023/11/30 14:24:36;;;;;;;25.00;19.60;;;4.10;91.80;;;;;;6221293;28;20042;-79
2023/11/30 14:27:38;;;;;;;21.98;16.52;;;4.20;91.40;;;;;;6224153;28;20041;-80
2023/11/30 14:30:40;;;;;;;23.58;18.60;;;4.10;91.30;;;;;;6224845;28;20049;-79
2023/11/30 14:33:44;;;;;;;22.80;18.13;;;4.10;91.30;;;;;;6223533;28;20050;-79
2023/11/30 14:36:45;;;;;;;19.92;16.83;;;4.00;91.30;;;;;;6215870;28;20069;-81
2023/11/30 14:39:48;;;;;;;18.67;16.50;;;3.90;91.40;;;;;;6211371;28;20046;-78
2023/11/30 14:42:50;;;;;;;23.33;18.75;;;3.90;91.50;;;;;;6223756;28;20049;-79
2023/11/30 14:45:52;;;;;;;29.38;20.50;;;3.80;91.40;;;;;;6223918;28;20049;-79
2023/11/30 14:48:55;;;;;;;23.20;17.05;;;3.80;91.40;;;;;;6223855;28;20158;-81
2023/11/30 14:51:56;;;;;;;24.15;19.05;;;3.70;91.30;;;;;;6224860;28;20100;-79
2023/11/30 14:54:59;;;;;;;27.75;19.75;;;3.70;91.30;;;;;;6229380;28;20069;-80
2023/11/30 14:58:00;;;;;;;27.45;20.10;;;3.60;91.30;;;;;;6224147;28;20041;-79
2023/11/30 15:01:02;;;;;;;21.20;16.23;;;3.60;91.20;;;;;;6224065;28;20077;-79
2023/11/30 15:04:05;;;;;;;26.30;18.15;;;3.50;91.20;;;;;;6222958;28;20057;-78
2023/11/30 15:07:07;;;;;;;21.95;16.42;;;3.40;91.20;;;;;;6222873;28;20446;-80
2023/11/30 15:10:10;;;;;;;21.88;17.52;;;3.40;91.30;;;;;;6217650;28;20095;-79
2023/11/30 15:13:12;;;;;;;22.23;17.83;;;3.40;91.40;;;;;;6222223;28;20431;-79
2023/11/30 15:16:14;;;;;;;26.05;20.08;;;3.40;91.50;;;;;;6223398;28;20633;-78
2023/11/30 15:19:17;;;;;;;23.60;18.50;;;3.40;91.50;;;;;;6221750;28;20761;-78
2023/11/30 15:22:19;;;;;;;49.58;31.02;;;3.40;91.50;;;;;;6223864;28;20140;-79
2023/11/30 15:25:21;;;;;;;64.65;37.17;;;3.40;91.50;;;;;;6224035;28;20125;-78
2023/11/30 15:28:23;;;;;;;27.23;20.73;;;3.40;91.50;;;;;;6227723;28;20050;-79
2023/11/30 15:31:25;;;;;;;23.35;18.83;;;3.40;91.50;;;;;;6227893;28;20050;-79